Terminal Aerodrome Forecast
Issued by NWS

Home | Current Version | Previous Version | Graphics & Text | Print | Product List | Glossary On
Versions: 1 2 3 4 5 6 7 8 9 10 11 12 13
981
FTUS42 KMHX 080527
TAFISO
TAF
KISO 080527Z 0806/0906 32011G16KT P6SM SCT120
     FM080800 30007KT P6SM SCT090
     FM082200 21007KT P6SM VCSH BKN050
      AMD LTD TO CLD VIS AND WIND=

USA.gov is the U.S. government's official web portal to all federal, state and local government web resources and services.